Time;durP1;ratioP1;P1;durP2;ratioP2;P2;SDS_P1;SDS_P2;PMS_P1;PMS_P2;Temp;Humidity;BMP_temperature;BMP_pressure;BME280_temperature;BME280_humidity;BME280_pressure;Samples;Min_cycle;Max_cycle;Signal;HPM_P1;HPM_P2
2022/08/31 00:04:41;;;;;;;3.28;0.80;;;17.20;99.90;;;;;;5068422;28;20039;-91
2022/08/31 00:07:07;;;;;;;7.38;0.73;;;17.10;99.90;;;;;;5059008;28;20028;-91
2022/08/31 00:09:32;;;;;;;2.75;0.55;;;17.20;99.90;;;;;;5071693;28;20063;-91
2022/08/31 00:11:59;;;;;;;2.28;0.65;;;17.10;99.90;;;;;;5059337;28;20037;-90
2022/08/31 00:14:25;;;;;;;2.40;0.43;;;17.10;99.90;;;;;;5060682;28;20377;-92
2022/08/31 00:16:51;;;;;;;3.63;1.13;;;17.10;99.90;;;;;;5070750;28;20039;-91
2022/08/31 00:19:16;;;;;;;3.13;0.73;;;17.10;99.90;;;;;;5072531;28;20017;-91
2022/08/31 00:21:42;;;;;;;2.58;0.60;;;17.10;99.90;;;;;;5062299;28;20025;-91
2022/08/31 00:24:07;;;;;;;1.40;0.50;;;17.10;99.90;;;;;;5057477;28;20112;-91
2022/08/31 00:26:33;;;;;;;1.80;0.57;;;17.10;99.90;;;;;;5072870;28;20025;-92
2022/08/31 00:28:59;;;;;;;1.15;0.50;;;17.00;99.90;;;;;;5072591;28;20551;-90
2022/08/31 00:31:24;;;;;;;1.85;0.55;;;17.00;99.90;;;;;;5069946;28;20114;-91
2022/08/31 00:33:51;;;;;;;2.50;0.57;;;17.00;99.90;;;;;;5074399;28;20455;-91
2022/08/31 00:36:19;;;;;;;1.40;0.60;;;17.00;99.90;;;;;;5069867;28;20021;-92
2022/08/31 00:38:47;;;;;;;2.20;0.60;;;16.90;99.90;;;;;;5074923;28;20032;-91
2022/08/31 00:41:13;;;;;;;3.15;0.70;;;16.90;99.90;;;;;;5075109;28;20067;-91
2022/08/31 00:43:48;;;;;;;2.45;0.60;;;16.90;99.90;;;;;;5075919;28;20476;-91
2022/08/31 00:46:22;;;;;;;1.45;0.50;;;16.90;99.90;;;;;;5067279;28;20518;-91
2022/08/31 00:49:21;;;;;;;3.60;0.55;;;16.80;99.90;;;;;;5075768;28;20088;-95
2022/08/31 00:52:05;;;;;;;2.40;0.98;;;16.80;99.90;;;;;;5067903;28;20036;-94
2022/08/31 00:54:38;;;;;;;1.45;0.50;;;16.80;99.90;;;;;;5066527;28;20095;-94
2022/08/31 00:57:05;;;;;;;1.80;0.60;;;16.70;99.90;;;;;;5074858;28;20039;-94
2022/08/31 00:59:31;;;;;;;1.83;0.57;;;16.70;99.90;;;;;;5073103;28;20498;-94
2022/08/31 01:01:57;;;;;;;4.00;1.58;;;16.70;99.90;;;;;;5073981;28;20028;-92
2022/08/31 01:04:22;;;;;;;3.80;0.70;;;16.60;99.90;;;;;;5069662;28;20021;-92
2022/08/31 01:06:50;;;;;;;3.70;0.70;;;16.60;99.90;;;;;;5073413;28;20041;-92
2022/08/31 01:09:16;;;;;;;2.08;0.65;;;16.60;99.90;;;;;;5075018;28;20036;-91
2022/08/31 01:11:42;;;;;;;3.13;0.70;;;16.60;99.90;;;;;;5068146;28;20546;-94
2022/08/31 01:14:09;;;;;;;2.53;0.70;;;16.50;99.90;;;;;;5063421;28;20035;-91
2022/08/31 01:16:46;;;;;;;2.67;0.60;;;16.50;99.90;;;;;;5071331;28;20101;-92
2022/08/31 01:19:33;;;;;;;2.42;0.70;;;16.50;99.90;;;;;;5075567;28;20028;-91
2022/08/31 01:22:09;;;;;;;2.22;0.60;;;16.40;99.90;;;;;;5075705;28;20138;-91
2022/08/31 01:24:38;;;;;;;1.33;0.52;;;16.40;99.90;;;;;;5071626;28;20021;-91
2022/08/31 01:27:06;;;;;;;2.05;0.50;;;16.40;99.90;;;;;;5069380;28;20025;-91
2022/08/31 01:29:33;;;;;;;3.75;0.70;;;16.30;99.90;;;;;;5072602;28;20029;-92
2022/08/31 01:31:58;;;;;;;1.85;0.70;;;16.30;99.90;;;;;;5067753;28;20037;-90
2022/08/31 01:34:24;;;;;;;2.13;0.70;;;16.30;99.90;;;;;;5073391;28;20031;-92
2022/08/31 01:36:50;;;;;;;3.78;0.88;;;16.20;99.90;;;;;;5074983;28;20074;-92
2022/08/31 01:39:17;;;;;;;2.45;0.60;;;16.20;99.90;;;;;;5061767;28;20538;-91
2022/08/31 01:41:43;;;;;;;2.80;0.70;;;16.20;99.90;;;;;;5059310;28;20498;-91
2022/08/31 01:44:14;;;;;;;2.97;0.85;;;16.10;99.90;;;;;;5072326;28;20024;-92
2022/08/31 01:46:41;;;;;;;2.38;0.70;;;16.10;99.90;;;;;;5069606;28;20028;-91
2022/08/31 01:49:07;;;;;;;1.65;0.70;;;16.10;99.90;;;;;;5074493;28;20358;-91
2022/08/31 01:51:33;;;;;;;1.83;0.50;;;16.10;99.90;;;;;;5057932;28;20120;-91
2022/08/31 01:53:59;;;;;;;2.20;0.70;;;16.10;99.90;;;;;;5071052;28;20429;-94
2022/08/31 01:56:33;;;;;;;1.90;0.60;;;16.00;99.90;;;;;;5064784;28;20067;-92
2022/08/31 01:58:59;;;;;;;4.72;0.85;;;16.00;99.90;;;;;;5067078;28;20056;-91
2022/08/31 02:01:29;;;;;;;3.53;0.60;;;16.00;99.90;;;;;;5072981;28;20063;-91
2022/08/31 02:03:54;;;;;;;1.67;0.65;;;15.90;99.90;;;;;;5069040;28;20021;-91
2022/08/31 02:06:20;;;;;;;1.85;0.70;;;15.90;99.90;;;;;;5070672;28;20052;-91
2022/08/31 02:08:45;;;;;;;2.15;0.70;;;15.90;99.90;;;;;;5073305;28;20491;-93
2022/08/31 02:11:11;;;;;;;2.80;0.60;;;15.90;99.90;;;;;;5072265;28;20037;-93
2022/08/31 02:13:37;;;;;;;3.03;0.80;;;15.90;99.90;;;;;;5071753;28;20507;-91
2022/08/31 02:16:03;;;;;;;3.67;0.70;;;15.80;99.90;;;;;;5070952;28;20547;-94
2022/08/31 02:18:28;;;;;;;2.38;0.90;;;15.80;99.90;;;;;;5071049;28;20033;-91
2022/08/31 02:20:54;;;;;;;1.60;0.60;;;15.80;99.90;;;;;;5066713;28;20115;-91
2022/08/31 02:23:20;;;;;;;2.63;0.80;;;15.80;99.90;;;;;;5068158;28;20048;-91
2022/08/31 02:25:45;;;;;;;1.65;0.80;;;15.80;99.90;;;;;;5065120;28;20052;-92
2022/08/31 02:28:12;;;;;;;1.98;0.70;;;15.80;99.90;;;;;;5073719;28;20024;-92
2022/08/31 02:30:40;;;;;;;2.20;0.57;;;15.70;99.90;;;;;;5070576;28;20353;-92
2022/08/31 02:33:06;;;;;;;2.25;0.52;;;15.70;99.90;;;;;;5070994;28;20115;-92
2022/08/31 02:35:31;;;;;;;3.03;0.68;;;15.70;99.90;;;;;;5071251;28;20216;-91
2022/08/31 02:37:57;;;;;;;1.67;0.60;;;15.60;99.90;;;;;;5073695;28;20036;-92
2022/08/31 02:40:22;;;;;;;1.67;0.80;;;15.60;99.90;;;;;;5073082;28;20016;-92
2022/08/31 02:42:48;;;;;;;2.00;0.55;;;15.60;99.90;;;;;;5072698;28;20492;-92
2022/08/31 02:45:13;;;;;;;1.92;0.73;;;15.60;99.90;;;;;;5070199;28;20044;-93
2022/08/31 02:47:39;;;;;;;2.75;0.57;;;15.60;99.90;;;;;;5071822;28;20025;-92
2022/08/31 02:50:05;;;;;;;6.68;1.95;;;15.50;99.90;;;;;;5061884;28;20169;-92
2022/08/31 02:52:31;;;;;;;2.25;0.50;;;15.50;99.90;;;;;;5059097;28;20496;-92
2022/08/31 02:54:56;;;;;;;2.28;0.50;;;15.50;99.90;;;;;;5067449;28;20017;-93
2022/08/31 02:57:22;;;;;;;2.25;0.40;;;15.40;99.90;;;;;;5068482;28;20036;-92
2022/08/31 02:59:48;;;;;;;3.45;0.50;;;15.40;99.90;;;;;;5066348;28;20101;-91
2022/08/31 03:02:13;;;;;;;2.20;0.60;;;15.40;99.90;;;;;;5073349;28;20028;-92
2022/08/31 03:04:40;;;;;;;4.10;0.60;;;15.40;99.90;;;;;;5070887;28;20063;-93
2022/08/31 03:07:06;;;;;;;1.40;0.50;;;15.40;99.90;;;;;;5071440;28;20105;-92
2022/08/31 03:09:31;;;;;;;2.53;0.50;;;15.30;99.90;;;;;;5065780;28;20025;-92
2022/08/31 03:11:58;;;;;;;2.38;0.47;;;15.30;99.90;;;;;;5068962;28;20116;-92
2022/08/31 03:14:25;;;;;;;1.20;0.40;;;15.30;99.90;;;;;;5072445;28;20556;-92
2022/08/31 03:16:51;;;;;;;3.30;0.55;;;15.30;99.90;;;;;;5069328;28;20480;-93
2022/08/31 03:19:17;;;;;;;0.82;0.40;;;15.20;99.90;;;;;;5069194;28;20036;-91
2022/08/31 03:21:44;;;;;;;2.40;0.52;;;15.20;99.90;;;;;;5064830;28;20096;-91
2022/08/31 03:24:10;;;;;;;4.22;0.52;;;15.20;99.90;;;;;;5072667;28;20024;-92
2022/08/31 03:26:35;;;;;;;1.92;0.70;;;15.10;99.90;;;;;;5071559;28;20038;-92
2022/08/31 03:29:01;;;;;;;1.92;0.50;;;15.10;99.90;;;;;;5070990;28;20439;-91
2022/08/31 03:31:27;;;;;;;0.98;0.38;;;15.10;99.90;;;;;;5070015;28;20108;-91
2022/08/31 03:33:52;;;;;;;1.60;0.45;;;15.10;99.90;;;;;;5070814;28;20033;-92
2022/08/31 03:36:18;;;;;;;1.42;0.40;;;15.00;99.90;;;;;;5061835;28;20021;-92
2022/08/31 03:38:43;;;;;;;2.58;0.35;;;15.00;99.90;;;;;;5072002;28;20037;-91
2022/08/31 03:41:10;;;;;;;1.10;0.45;;;15.00;99.90;;;;;;5071629;28;20111;-91
2022/08/31 03:43:36;;;;;;;1.10;0.50;;;15.00;99.90;;;;;;5071353;28;20038;-91
2022/08/31 03:46:03;;;;;;;2.05;0.50;;;14.90;99.90;;;;;;5070614;28;20028;-92
2022/08/31 03:48:29;;;;;;;1.85;0.40;;;14.90;99.90;;;;;;5071826;28;20040;-92
2022/08/31 03:50:54;;;;;;;1.73;0.80;;;14.90;99.90;;;;;;5058325;28;20127;-92
2022/08/31 03:53:20;;;;;;;2.55;0.40;;;14.80;99.90;;;;;;5065108;28;20028;-92
2022/08/31 03:55:45;;;;;;;0.98;0.40;;;14.80;99.90;;;;;;5071711;28;20116;-91
2022/08/31 03:58:11;;;;;;;2.38;0.40;;;14.80;99.90;;;;;;5071953;28;20028;-91
2022/08/31 04:00:41;;;;;;;1.33;0.40;;;14.80;99.90;;;;;;5071649;28;20544;-93
2022/08/31 04:03:06;;;;;;;1.15;0.38;;;14.70;99.90;;;;;;5069688;28;20032;-92
2022/08/31 04:05:34;;;;;;;1.35;0.40;;;14.80;99.90;;;;;;5063086;28;20048;-93
2022/08/31 04:08:00;;;;;;;1.70;0.50;;;14.70;99.90;;;;;;5075084;28;20029;-92
2022/08/31 04:10:25;;;;;;;1.30;0.40;;;14.70;99.90;;;;;;5077444;28;20039;-93
2022/08/31 04:12:51;;;;;;;2.75;0.40;;;14.70;99.90;;;;;;5067291;28;20047;-93
2022/08/31 04:15:17;;;;;;;3.42;0.40;;;14.70;99.90;;;;;;5060415;28;20063;-91
2022/08/31 04:17:44;;;;;;;1.35;0.40;;;14.60;99.90;;;;;;5074970;28;20028;-91
2022/08/31 04:20:10;;;;;;;2.35;0.30;;;14.60;99.90;;;;;;5075848;28;20128;-91
2022/08/31 04:22:35;;;;;;;2.78;0.85;;;14.60;99.90;;;;;;5075331;28;20457;-92
2022/08/31 04:25:04;;;;;;;1.95;0.40;;;14.50;99.90;;;;;;5074590;28;20029;-91
2022/08/31 04:27:30;;;;;;;1.65;0.40;;;14.50;99.90;;;;;;5076817;28;20495;-91
2022/08/31 04:29:56;;;;;;;1.65;0.40;;;14.50;99.90;;;;;;5067645;28;20162;-91
2022/08/31 04:32:21;;;;;;;1.33;0.40;;;14.50;99.90;;;;;;5063716;28;20051;-91
2022/08/31 04:34:47;;;;;;;1.27;0.40;;;14.50;99.90;;;;;;5073719;28;20024;-91
2022/08/31 04:37:13;;;;;;;2.65;1.00;;;14.40;99.90;;;;;;5067768;28;20159;-92
2022/08/31 04:39:41;;;;;;;2.15;0.40;;;14.40;99.90;;;;;;5073745;28;20021;-92
2022/08/31 04:42:09;;;;;;;1.35;0.40;;;14.40;99.90;;;;;;5073926;28;20123;-92
2022/08/31 04:44:34;;;;;;;1.17;0.50;;;14.30;99.90;;;;;;5074121;28;20488;-93
2022/08/31 04:47:00;;;;;;;1.83;0.40;;;14.30;99.90;;;;;;5074607;28;20027;-93
2022/08/31 04:49:25;;;;;;;3.45;0.40;;;14.30;99.90;;;;;;5075422;28;20029;-93
2022/08/31 04:51:51;;;;;;;1.30;0.47;;;14.20;99.90;;;;;;5074895;28;20082;-93
2022/08/31 04:54:16;;;;;;;4.25;0.50;;;14.20;99.90;;;;;;5074006;28;20028;-93
2022/08/31 04:56:44;;;;;;;2.47;0.40;;;14.20;99.90;;;;;;5074404;28;20403;-92
2022/08/31 04:59:12;;;;;;;1.35;0.40;;;14.20;99.90;;;;;;5075464;28;20031;-93
2022/08/31 05:01:41;;;;;;;2.42;0.30;;;14.20;99.90;;;;;;5073276;28;20024;-92
2022/08/31 05:04:08;;;;;;;2.00;0.30;;;14.20;99.90;;;;;;5076543;28;20031;-93
2022/08/31 05:06:35;;;;;;;3.42;0.40;;;14.20;99.90;;;;;;5072104;28;20143;-91
2022/08/31 05:09:05;;;;;;;1.52;0.30;;;14.20;99.90;;;;;;5070329;28;20491;-92
2022/08/31 05:11:31;;;;;;;1.48;0.30;;;14.20;99.90;;;;;;5071663;28;20037;-92
2022/08/31 05:13:59;;;;;;;1.20;0.50;;;14.20;99.90;;;;;;5071588;28;20027;-94
2022/08/31 05:16:25;;;;;;;2.35;0.32;;;14.20;99.90;;;;;;5063318;28;20041;-93
2022/08/31 05:18:51;;;;;;;2.25;0.40;;;14.20;99.90;;;;;;5066229;28;20494;-93
2022/08/31 05:21:27;;;;;;;4.05;0.40;;;14.20;99.90;;;;;;5073986;28;20433;-92
2022/08/31 05:23:57;;;;;;;4.10;0.40;;;14.20;99.90;;;;;;5074008;28;20023;-92
2022/08/31 05:26:27;;;;;;;0.80;0.30;;;14.20;99.90;;;;;;5072697;28;20471;-85
2022/08/31 05:28:53;;;;;;;2.90;0.40;;;14.30;99.90;;;;;;5067184;28;20060;-85
2022/08/31 05:31:19;;;;;;;2.85;0.30;;;14.30;99.90;;;;;;5067214;28;20033;-85
2022/08/31 05:33:45;;;;;;;2.70;0.70;;;14.30;99.90;;;;;;5062739;28;20043;-92
2022/08/31 05:36:11;;;;;;;2.50;0.40;;;14.30;99.90;;;;;;5075854;28;20021;-92
2022/08/31 05:38:37;;;;;;;1.48;0.35;;;14.30;99.90;;;;;;5075186;28;20036;-91
2022/08/31 05:41:05;;;;;;;4.20;0.40;;;14.40;99.90;;;;;;5076780;28;20040;-93
2022/08/31 05:43:31;;;;;;;3.15;0.40;;;14.40;99.90;;;;;;5075790;28;20020;-91
2022/08/31 05:45:57;;;;;;;5.05;0.70;;;14.40;99.90;;;;;;5077150;28;20024;-92
2022/08/31 05:48:23;;;;;;;1.67;0.30;;;14.50;99.90;;;;;;5075039;28;20028;-92
2022/08/31 05:50:50;;;;;;;1.70;0.52;;;14.50;99.90;;;;;;5070740;28;20167;-91
2022/08/31 05:53:16;;;;;;;1.00;0.30;;;14.50;99.90;;;;;;5077324;28;20396;-93
2022/08/31 05:55:41;;;;;;;1.90;0.40;;;14.60;99.90;;;;;;5075749;28;20119;-91
2022/08/31 05:58:07;;;;;;;6.55;0.40;;;14.60;99.90;;;;;;5074121;28;20111;-92
2022/08/31 06:00:34;;;;;;;1.33;0.30;;;14.70;99.90;;;;;;5068674;28;20060;-93
2022/08/31 06:02:59;;;;;;;1.00;0.30;;;14.60;99.90;;;;;;5072507;28;20032;-93
2022/08/31 06:05:25;;;;;;;2.55;0.38;;;14.70;99.80;;;;;;5076638;28;20087;-91
2022/08/31 06:07:51;;;;;;;1.00;0.30;;;14.70;99.80;;;;;;5065269;28;20032;-91
2022/08/31 06:10:17;;;;;;;1.40;0.30;;;14.80;99.70;;;;;;5069254;28;20017;-92
2022/08/31 06:12:43;;;;;;;2.10;0.30;;;14.80;99.70;;;;;;5073574;28;20044;-94
2022/08/31 06:15:10;;;;;;;2.83;0.70;;;14.80;99.70;;;;;;5071537;28;20033;-93
2022/08/31 06:17:36;;;;;;;1.75;0.40;;;14.90;99.50;;;;;;5067810;28;20048;-92
2022/08/31 06:20:04;;;;;;;1.77;0.30;;;14.90;99.40;;;;;;5066124;28;20079;-93
2022/08/31 06:22:30;;;;;;;0.90;0.30;;;15.00;99.30;;;;;;5074527;28;20558;-94
2022/08/31 06:24:55;;;;;;;2.25;0.30;;;15.00;99.20;;;;;;5074367;28;20060;-92
2022/08/31 06:27:21;;;;;;;2.47;0.30;;;15.10;99.10;;;;;;5065817;28;20021;-93
2022/08/31 06:29:48;;;;;;;2.45;0.40;;;15.10;98.90;;;;;;5055786;28;20025;-94
2022/08/31 06:32:14;;;;;;;0.52;0.20;;;15.20;98.80;;;;;;5057542;28;20029;-93
2022/08/31 06:34:41;;;;;;;2.47;0.40;;;15.20;98.70;;;;;;5072549;28;20028;-94
2022/08/31 06:37:09;;;;;;;1.45;0.30;;;15.20;98.50;;;;;;5068869;28;20036;-93
2022/08/31 06:39:35;;;;;;;1.10;0.30;;;15.30;98.40;;;;;;5077292;28;20021;-94
2022/08/31 06:42:02;;;;;;;1.75;0.30;;;15.40;98.30;;;;;;5075482;28;20032;-94
2022/08/31 06:44:28;;;;;;;1.70;0.20;;;15.50;98.20;;;;;;5073910;28;20043;-92
2022/08/31 06:46:54;;;;;;;1.45;0.22;;;15.60;98.00;;;;;;5056427;28;20087;-95
2022/08/31 06:49:20;;;;;;;1.25;0.30;;;15.70;97.80;;;;;;5066519;28;20025;-95
2022/08/31 06:51:46;;;;;;;1.52;0.30;;;15.80;97.70;;;;;;5074943;28;20046;-93
2022/08/31 06:54:14;;;;;;;2.97;0.40;;;15.80;97.30;;;;;;5060339;28;20797;-92
2022/08/31 06:56:39;;;;;;;2.35;0.30;;;15.80;97.00;;;;;;5065068;28;20097;-92
2022/08/31 06:59:06;;;;;;;1.33;0.40;;;15.80;97.10;;;;;;5068439;28;20096;-92
2022/08/31 07:01:35;;;;;;;10.00;0.55;;;15.80;97.10;;;;;;5061275;28;20051;-92
2022/08/31 07:04:03;;;;;;;4.97;0.40;;;15.80;97.10;;;;;;5061518;28;20031;-92
2022/08/31 07:06:31;;;;;;;2.22;0.32;;;15.80;97.10;;;;;;5069974;28;20048;-93
2022/08/31 07:08:59;;;;;;;3.08;0.40;;;15.70;97.00;;;;;;5072250;28;20094;-92
2022/08/31 07:11:35;;;;;;;1.30;0.40;;;15.70;97.10;;;;;;5071831;28;20106;-93
2022/08/31 07:14:02;;;;;;;2.67;1.13;;;15.70;97.10;;;;;;5076481;28;20483;-93
2022/08/31 07:16:27;;;;;;;0.98;0.30;;;15.70;97.10;;;;;;5055726;28;20033;-92
2022/08/31 07:18:56;;;;;;;2.00;0.40;;;15.80;97.10;;;;;;5063928;28;20028;-91
2022/08/31 07:21:26;;;;;;;1.80;0.40;;;15.90;97.00;;;;;;5071520;28;20236;-93
2022/08/31 07:23:53;;;;;;;1.30;0.40;;;16.00;96.90;;;;;;5069539;28;20021;-91
2022/08/31 07:26:34;;;;;;;4.35;0.40;;;16.30;96.80;;;;;;5060328;28;20361;-92
2022/08/31 07:29:03;;;;;;;1.17;0.40;;;16.40;96.50;;;;;;5070107;28;20056;-93
2022/08/31 07:31:45;;;;;;;1.77;0.75;;;16.60;96.20;;;;;;5073006;28;20036;-92
2022/08/31 07:34:12;;;;;;;0.98;0.40;;;16.80;95.90;;;;;;5058901;28;20021;-92
2022/08/31 07:42:09;;;;;;;1.88;0.40;;;17.30;95.30;;;;;;5075207;28;20532;-94
2022/08/31 07:44:34;;;;;;;1.02;0.50;;;17.40;95.10;;;;;;5074597;28;20070;-93
2022/08/31 07:47:01;;;;;;;2.03;0.40;;;17.60;95.00;;;;;;5068423;28;20048;-94
2022/08/31 07:49:26;;;;;;;2.70;0.40;;;17.70;94.90;;;;;;5068193;28;20021;-92
2022/08/31 07:51:52;;;;;;;0.88;0.40;;;17.70;94.60;;;;;;5052178;28;20033;-92
2022/08/31 07:54:24;;;;;;;1.20;0.30;;;17.70;94.50;;;;;;5060439;28;20050;-92
2022/08/31 07:56:50;;;;;;;1.80;0.30;;;17.70;94.50;;;;;;5054495;28;20451;-94
2022/08/31 07:59:21;;;;;;;2.75;0.60;;;17.80;94.40;;;;;;5060632;28;20523;-93
2022/08/31 08:01:48;;;;;;;1.88;0.30;;;17.70;94.30;;;;;;5072279;28;20161;-93
2022/08/31 08:04:27;;;;;;;3.13;0.30;;;17.80;94.40;;;;;;5088247;28;20606;-92
2022/08/31 08:06:55;;;;;;;1.15;0.30;;;17.80;94.40;;;;;;5071439;28;20041;-92
2022/08/31 08:09:26;;;;;;;2.55;0.40;;;17.90;94.40;;;;;;5072365;28;20035;-92
2022/08/31 08:11:54;;;;;;;1.95;0.35;;;17.90;94.30;;;;;;5072280;28;20045;-91
2022/08/31 08:14:21;;;;;;;2.15;0.40;;;18.00;94.20;;;;;;5072155;28;20464;-94
2022/08/31 08:16:47;;;;;;;1.35;0.40;;;18.00;94.20;;;;;;5071541;28;20036;-93
2022/08/31 08:19:13;;;;;;;2.58;0.40;;;18.10;94.20;;;;;;5072750;28;20033;-92
2022/08/31 08:21:38;;;;;;;2.15;0.50;;;18.20;94.20;;;;;;5069052;28;20059;-94
2022/08/31 08:24:04;;;;;;;2.20;0.38;;;18.30;94.10;;;;;;5066625;28;20029;-92
2022/08/31 08:26:30;;;;;;;1.58;0.50;;;18.30;94.00;;;;;;5061907;28;20089;-94
2022/08/31 08:28:56;;;;;;;1.25;0.30;;;18.40;94.00;;;;;;5061290;28;20020;-95
2022/08/31 08:31:22;;;;;;;1.55;0.50;;;18.40;94.00;;;;;;5072006;28;20449;-95
2022/08/31 08:33:49;;;;;;;1.13;0.40;;;18.40;94.20;;;;;;5071604;28;20028;-96
2022/08/31 08:36:18;;;;;;;1.90;0.77;;;18.40;94.20;;;;;;5071393;28;20020;-94
2022/08/31 08:38:46;;;;;;;3.28;0.75;;;18.50;94.20;;;;;;5069809;28;20508;-94
2022/08/31 08:41:18;;;;;;;2.65;0.70;;;18.50;94.20;;;;;;5071778;28;20031;-95
2022/08/31 08:43:47;;;;;;;3.53;0.60;;;18.40;94.20;;;;;;5070114;28;20029;-94
2022/08/31 08:46:14;;;;;;;2.22;0.70;;;18.40;94.40;;;;;;5070776;28;20063;-95
2022/08/31 08:48:42;;;;;;;2.17;0.60;;;18.40;94.50;;;;;;5070818;28;20028;-95
2022/08/31 08:51:15;;;;;;;1.70;0.60;;;18.40;94.60;;;;;;5070781;28;20107;-94
2022/08/31 08:53:42;;;;;;;3.75;0.55;;;18.50;94.60;;;;;;5062894;28;20051;-96
2022/08/31 08:56:12;;;;;;;6.15;0.70;;;18.60;94.60;;;;;;5074475;28;20029;-95
2022/08/31 08:58:42;;;;;;;3.58;0.70;;;18.60;94.50;;;;;;5072223;28;20025;-91
2022/08/31 09:01:13;;;;;;;4.88;0.70;;;18.70;94.50;;;;;;5071002;28;20024;-96
2022/08/31 09:04:16;;;;;;;4.53;0.73;;;18.80;94.40;;;;;;5075743;28;20095;-95
2022/08/31 09:07:03;;;;;;;1.95;0.60;;;19.00;94.20;;;;;;5073556;28;20037;-92
2022/08/31 09:09:39;;;;;;;3.55;0.65;;;19.10;94.10;;;;;;5075397;28;20032;-91
2022/08/31 09:12:19;;;;;;;1.98;0.60;;;19.20;94.00;;;;;;5075146;28;20519;-93
2022/08/31 09:15:06;;;;;;;3.08;0.70;;;19.30;94.00;;;;;;5073513;28;20024;-93
2022/08/31 09:17:51;;;;;;;4.03;0.60;;;19.60;93.90;;;;;;5074377;28;20035;-92
2022/08/31 09:20:18;;;;;;;4.45;0.80;;;19.90;93.50;;;;;;5073048;28;20115;-94
2022/08/31 09:22:49;;;;;;;5.53;0.93;;;20.10;93.00;;;;;;5074807;28;20028;-90
2022/08/31 09:25:32;;;;;;;2.72;0.90;;;20.40;92.90;;;;;;5072152;28;20025;-94
2022/08/31 09:28:06;;;;;;;2.33;0.50;;;20.60;92.40;;;;;;5067173;28;20054;-91
2022/08/31 09:30:50;;;;;;;2.00;0.80;;;20.70;92.00;;;;;;5064689;28;20111;-92
2022/08/31 09:33:22;;;;;;;2.47;0.75;;;20.90;91.70;;;;;;5066665;28;20488;-92
2022/08/31 09:35:54;;;;;;;5.47;0.77;;;21.00;91.60;;;;;;5075643;28;20345;-92
2022/08/31 09:38:38;;;;;;;2.05;0.55;;;21.20;91.70;;;;;;5074518;28;20484;-91
2022/08/31 09:41:18;;;;;;;1.77;0.70;;;21.50;91.50;;;;;;5074900;28;20025;-96
2022/08/31 09:43:44;;;;;;;1.98;0.73;;;21.60;91.20;;;;;;5069956;28;20397;-92
2022/08/31 09:46:22;;;;;;;1.88;0.50;;;21.60;91.00;;;;;;5072861;28;20025;-93
2022/08/31 09:48:50;;;;;;;3.53;0.55;;;21.70;90.90;;;;;;5075761;28;20036;-92
2022/08/31 09:51:32;;;;;;;2.03;0.50;;;21.80;90.80;;;;;;5075687;28;20043;-90
2022/08/31 09:57:03;;;;;;;1.35;0.68;;;21.90;90.00;;;;;;5064621;28;20420;-94
2022/08/31 09:59:36;;;;;;;2.22;0.50;;;21.80;90.00;;;;;;5076703;28;20032;-96
2022/08/31 10:02:25;;;;;;;3.95;0.50;;;21.60;89.60;;;;;;5075024;28;20028;-91
2022/08/31 10:05:05;;;;;;;1.30;0.52;;;21.50;90.20;;;;;;5065026;28;20041;-92
2022/08/31 10:08:03;;;;;;;3.70;0.90;;;21.60;90.00;;;;;;5075384;28;20020;-96
2022/08/31 10:10:34;;;;;;;2.88;0.80;;;21.60;90.00;;;;;;5073786;28;20163;-94
2022/08/31 10:13:16;;;;;;;2.70;0.60;;;21.60;90.00;;;;;;5065210;28;20044;-92
2022/08/31 10:15:59;;;;;;;1.95;0.70;;;21.50;90.00;;;;;;5076506;28;20020;-93
2022/08/31 10:18:54;;;;;;;2.58;0.60;;;21.40;90.00;;;;;;5091256;28;20028;-92
2022/08/31 10:21:43;;;;;;;1.35;0.50;;;21.20;90.10;;;;;;5069408;28;20025;-93
2022/08/31 10:24:27;;;;;;;2.88;0.60;;;21.20;90.20;;;;;;5046678;28;20052;-91
2022/08/31 10:27:05;;;;;;;2.70;0.70;;;21.30;90.40;;;;;;5073690;28;20027;-95
2022/08/31 10:29:41;;;;;;;2.83;0.60;;;21.70;90.20;;;;;;5064427;28;20392;-90
2022/08/31 10:32:44;;;;;;;1.65;0.70;;;22.00;89.70;;;;;;5062200;28;20064;-94
2022/08/31 10:35:16;;;;;;;2.67;0.65;;;22.40;88.50;;;;;;5068835;28;20506;-91
2022/08/31 10:37:48;;;;;;;;;;;22.70;87.30;;;;;;5072943;28;20031;-90
2022/08/31 10:40:23;;;;;;;5.47;0.60;;;22.80;86.20;;;;;;5070228;28;20431;-91
2022/08/31 10:43:17;;;;;;;4.05;0.60;;;23.10;86.10;;;;;;5060763;28;20029;-91
2022/08/31 10:45:48;;;;;;;1.65;0.50;;;23.30;85.40;;;;;;5069080;28;20035;-91
2022/08/31 10:48:20;;;;;;;3.13;0.60;;;23.50;83.50;;;;;;5072473;28;20139;-92
2022/08/31 10:51:05;;;;;;;;;;;23.60;82.50;;;;;;5072076;28;20100;-90
2022/08/31 10:53:55;;;;;;;2.28;0.50;;;23.50;82.30;;;;;;5069756;28;20404;-93
2022/08/31 10:56:40;;;;;;;3.65;0.70;;;23.70;81.70;;;;;;5057675;28;20523;-92
2022/08/31 10:59:23;;;;;;;2.15;0.50;;;23.80;80.70;;;;;;5072429;28;20040;-94
2022/08/31 11:01:48;;;;;;;1.83;0.70;;;24.00;80.10;;;;;;5060002;28;20021;-91
2022/08/31 11:04:24;;;;;;;2.65;0.77;;;24.00;79.00;;;;;;5072874;28;20035;-93
2022/08/31 11:07:23;;;;;;;4.53;0.50;;;24.00;78.60;;;;;;5073560;28;20075;-93
2022/08/31 11:10:38;;;;;;;2.10;0.50;;;24.10;78.00;;;;;;5071582;28;20029;-93
2022/08/31 11:13:13;;;;;;;2.88;0.60;;;24.10;77.20;;;;;;4990802;28;20065;-94
2022/08/31 11:16:01;;;;;;;1.58;0.52;;;24.00;77.30;;;;;;4991980;28;20034;-93
2022/08/31 11:18:49;;;;;;;3.20;0.52;;;24.00;77.20;;;;;;5032454;28;20028;-94
2022/08/31 11:21:49;;;;;;;1.75;0.45;;;24.00;77.10;;;;;;5078014;28;20104;-93
2022/08/31 11:24:56;;;;;;;1.25;0.40;;;24.00;76.90;;;;;;5071936;28;20086;-92
2022/08/31 11:27:32;;;;;;;3.22;0.60;;;23.90;76.80;;;;;;5069974;28;20056;-94
2022/08/31 11:30:06;;;;;;;3.38;0.40;;;23.80;76.60;;;;;;5072493;28;20475;-92
2022/08/31 11:32:44;;;;;;;4.07;0.40;;;23.70;76.80;;;;;;5068089;28;20064;-92
2022/08/31 11:35:10;;;;;;;1.83;0.30;;;23.60;76.80;;;;;;5070821;28;20484;-91
2022/08/31 11:37:49;;;;;;;0.90;0.30;;;23.60;77.30;;;;;;5071638;28;20032;-92
2022/08/31 11:40:40;;;;;;;2.33;0.30;;;23.70;76.90;;;;;;5072266;28;20026;-94
2022/08/31 11:43:10;;;;;;;1.27;0.30;;;23.80;76.50;;;;;;5072687;28;20095;-93
2022/08/31 11:45:36;;;;;;;3.90;0.40;;;23.80;76.10;;;;;;5072303;28;20025;-92
2022/08/31 11:48:10;;;;;;;4.38;0.40;;;23.80;75.80;;;;;;5072468;28;20036;-93
2022/08/31 11:50:35;;;;;;;4.35;0.45;;;23.80;76.00;;;;;;5071901;28;20102;-90
2022/08/31 11:53:26;;;;;;;1.58;0.40;;;23.80;75.70;;;;;;5074588;28;20028;-93
2022/08/31 11:55:57;;;;;;;1.00;0.30;;;23.90;75.30;;;;;;5068738;28;20046;-93
2022/08/31 11:58:29;;;;;;;1.65;0.40;;;24.00;75.30;;;;;;5072273;28;20048;-92
2022/08/31 12:00:58;;;;;;;1.50;0.40;;;24.10;74.90;;;;;;5072889;28;20116;-94
2022/08/31 12:03:51;;;;;;;1.73;0.40;;;24.10;74.60;;;;;;5072951;28;20274;-90
2022/08/31 12:06:32;;;;;;;2.15;0.40;;;24.30;74.30;;;;;;5072518;28;20100;-91
2022/08/31 12:09:00;;;;;;;1.38;0.50;;;24.40;73.70;;;;;;5072552;28;20025;-92
2022/08/31 12:11:51;;;;;;;3.00;0.63;;;24.30;73.00;;;;;;5072697;28;20086;-94
2022/08/31 12:14:38;;;;;;;2.47;0.40;;;24.30;72.60;;;;;;5063095;28;20447;-92
2022/08/31 12:17:12;;;;;;;2.67;0.43;;;24.20;73.00;;;;;;5072003;28;20052;-92
2022/08/31 12:19:58;;;;;;;1.00;0.35;;;24.30;73.90;;;;;;5072031;28;20021;-91
2022/08/31 12:25:54;;;;;;;3.33;0.40;;;24.50;71.90;;;;;;5070822;28;20467;-92
2022/08/31 12:28:38;;;;;;;3.35;0.50;;;24.40;71.60;;;;;;5071155;28;20111;-89
2022/08/31 12:31:18;;;;;;;3.60;0.50;;;24.40;72.20;;;;;;5074395;28;20024;-93
2022/08/31 12:34:00;;;;;;;3.25;0.40;;;24.50;71.90;;;;;;5077780;28;20053;-91
2022/08/31 12:36:30;;;;;;;4.10;0.40;;;24.70;71.90;;;;;;5076623;28;20025;-94
2022/08/31 12:39:11;;;;;;;3.95;0.45;;;24.80;71.70;;;;;;5077961;28;20507;-91
2022/08/31 12:41:41;;;;;;;1.55;0.57;;;24.80;71.40;;;;;;5077458;28;20024;-91
2022/08/31 12:44:07;;;;;;;3.10;0.47;;;24.80;71.50;;;;;;5076597;28;20115;-93
2022/08/31 12:46:41;;;;;;;3.38;0.50;;;24.70;71.30;;;;;;5068069;28;20558;-93
2022/08/31 12:49:25;;;;;;;5.18;0.90;;;24.70;71.30;;;;;;5070847;28;20021;-91
2022/08/31 12:52:04;;;;;;;2.38;0.60;;;24.60;70.60;;;;;;5079818;28;20041;-91
2022/08/31 12:54:51;;;;;;;1.20;0.40;;;24.60;71.20;;;;;;5080159;28;20021;-93
2022/08/31 12:57:57;;;;;;;2.42;0.45;;;24.70;70.60;;;;;;5075801;28;20099;-92
2022/08/31 13:00:32;;;;;;;2.65;0.65;;;24.70;70.30;;;;;;5076466;28;20028;-91
2022/08/31 13:03:22;;;;;;;2.75;0.50;;;24.60;70.60;;;;;;5076351;28;20032;-92
2022/08/31 13:06:25;;;;;;;2.33;0.70;;;24.80;70.40;;;;;;5068367;28;20053;-92
2022/08/31 13:08:54;;;;;;;3.72;0.70;;;24.90;69.60;;;;;;5056670;28;20513;-88
2022/08/31 13:11:37;;;;;;;2.83;0.60;;;25.00;70.20;;;;;;5075608;28;20028;-92
2022/08/31 13:14:19;;;;;;;2.20;0.60;;;25.30;70.00;;;;;;5069879;28;20115;-92
2022/08/31 13:16:49;;;;;;;1.65;0.50;;;25.30;69.00;;;;;;5074396;28;20024;-91
2022/08/31 13:19:25;;;;;;;1.98;0.43;;;25.30;68.90;;;;;;5075466;28;20016;-92
2022/08/31 13:22:15;;;;;;;2.25;0.50;;;25.40;68.80;;;;;;5069224;28;20024;-90
2022/08/31 13:24:44;;;;;;;1.25;0.40;;;25.40;68.40;;;;;;5075306;28;20497;-90